sensor_id;sensor_type;location;lat;lon;timestamp;P1;durP1;ratioP1;P2;durP2;ratioP2
10201;SDS011;5143;42.584;23.164;2023-04-29T00:01:50;5.50;;;3.17;;
10201;SDS011;5143;42.584;23.164;2023-04-29T00:04:18;7.83;;;3.03;;
10201;SDS011;5143;42.584;23.164;2023-04-29T00:06:45;6.00;;;3.43;;
10201;SDS011;5143;42.584;23.164;2023-04-29T00:09:11;6.40;;;3.10;;
10201;SDS011;5143;42.584;23.164;2023-04-29T00:11:38;5.93;;;3.13;;
10201;SDS011;5143;42.584;23.164;2023-04-29T00:14:05;4.83;;;3.53;;
10201;SDS011;5143;42.584;23.164;2023-04-29T00:16:32;8.27;;;3.33;;
10201;SDS011;5143;42.584;23.164;2023-04-29T00:18:58;6.77;;;3.73;;
10201;SDS011;5143;42.584;23.164;2023-04-29T00:21:27;6.83;;;3.60;;
10201;SDS011;5143;42.584;23.164;2023-04-29T00:23:54;5.93;;;3.10;;
10201;SDS011;5143;42.584;23.164;2023-04-29T00:26:21;4.00;;;2.90;;
10201;SDS011;5143;42.584;23.164;2023-04-29T00:28:47;4.03;;;2.47;;
10201;SDS011;5143;42.584;23.164;2023-04-29T00:31:14;4.70;;;2.53;;
10201;SDS011;5143;42.584;23.164;2023-04-29T00:33:41;3.87;;;2.83;;
10201;SDS011;5143;42.584;23.164;2023-04-29T00:36:08;3.67;;;2.73;;
10201;SDS011;5143;42.584;23.164;2023-04-29T00:38:36;5.67;;;2.83;;
10201;SDS011;5143;42.584;23.164;2023-04-29T00:41:02;4.07;;;2.80;;
10201;SDS011;5143;42.584;23.164;2023-04-29T00:43:29;4.70;;;2.97;;
10201;SDS011;5143;42.584;23.164;2023-04-29T00:45:56;5.23;;;3.57;;
10201;SDS011;5143;42.584;23.164;2023-04-29T00:48:23;5.30;;;3.30;;
10201;SDS011;5143;42.584;23.164;2023-04-29T00:50:50;7.20;;;3.60;;
10201;SDS011;5143;42.584;23.164;2023-04-29T00:53:17;5.17;;;3.63;;
10201;SDS011;5143;42.584;23.164;2023-04-29T00:55:45;8.47;;;3.83;;
10201;SDS011;5143;42.584;23.164;2023-04-29T00:58:14;6.63;;;3.50;;
10201;SDS011;5143;42.584;23.164;2023-04-29T01:00:41;6.80;;;3.00;;
10201;SDS011;5143;42.584;23.164;2023-04-29T01:03:10;5.37;;;3.00;;
10201;SDS011;5143;42.584;23.164;2023-04-29T01:05:38;4.40;;;3.10;;
10201;SDS011;5143;42.584;23.164;2023-04-29T01:08:10;5.73;;;3.03;;
10201;SDS011;5143;42.584;23.164;2023-04-29T01:11:07;5.83;;;3.20;;
10201;SDS011;5143;42.584;23.164;2023-04-29T01:13:36;7.47;;;3.03;;
10201;SDS011;5143;42.584;23.164;2023-04-29T01:16:10;3.97;;;3.07;;
10201;SDS011;5143;42.584;23.164;2023-04-29T01:18:44;6.70;;;3.47;;
10201;SDS011;5143;42.584;23.164;2023-04-29T01:21:15;5.70;;;3.17;;
10201;SDS011;5143;42.584;23.164;2023-04-29T01:23:43;5.83;;;3.40;;
10201;SDS011;5143;42.584;23.164;2023-04-29T01:26:10;6.60;;;3.47;;
10201;SDS011;5143;42.584;23.164;2023-04-29T01:28:39;5.10;;;3.30;;
10201;SDS011;5143;42.584;23.164;2023-04-29T01:31:14;4.80;;;3.50;;
10201;SDS011;5143;42.584;23.164;2023-04-29T01:33:47;4.30;;;2.93;;
10201;SDS011;5143;42.584;23.164;2023-04-29T01:36:25;6.97;;;3.30;;
10201;SDS011;5143;42.584;23.164;2023-04-29T01:39:02;6.03;;;3.43;;
10201;SDS011;5143;42.584;23.164;2023-04-29T01:41:34;5.07;;;3.27;;
10201;SDS011;5143;42.584;23.164;2023-04-29T01:44:09;8.60;;;3.73;;
10201;SDS011;5143;42.584;23.164;2023-04-29T01:46:40;6.07;;;3.37;;
10201;SDS011;5143;42.584;23.164;2023-04-29T01:49:09;4.70;;;3.30;;
10201;SDS011;5143;42.584;23.164;2023-04-29T01:51:35;5.30;;;3.20;;
10201;SDS011;5143;42.584;23.164;2023-04-29T01:54:03;4.87;;;3.27;;
10201;SDS011;5143;42.584;23.164;2023-04-29T01:56:30;5.80;;;3.40;;
10201;SDS011;5143;42.584;23.164;2023-04-29T01:58:57;3.93;;;3.17;;
10201;SDS011;5143;42.584;23.164;2023-04-29T02:01:24;5.77;;;3.30;;
10201;SDS011;5143;42.584;23.164;2023-04-29T02:03:50;5.67;;;2.90;;
10201;SDS011;5143;42.584;23.164;2023-04-29T02:06:17;4.73;;;3.10;;
10201;SDS011;5143;42.584;23.164;2023-04-29T02:08:44;5.67;;;2.90;;
10201;SDS011;5143;42.584;23.164;2023-04-29T02:11:12;5.43;;;3.40;;
10201;SDS011;5143;42.584;23.164;2023-04-29T02:13:39;5.50;;;3.83;;
10201;SDS011;5143;42.584;23.164;2023-04-29T02:16:06;4.07;;;3.23;;
10201;SDS011;5143;42.584;23.164;2023-04-29T02:18:33;9.90;;;2.93;;
10201;SDS011;5143;42.584;23.164;2023-04-29T02:21:00;3.97;;;2.67;;
10201;SDS011;5143;42.584;23.164;2023-04-29T02:23:27;7.53;;;2.90;;
10201;SDS011;5143;42.584;23.164;2023-04-29T02:25:54;4.13;;;2.33;;
10201;SDS011;5143;42.584;23.164;2023-04-29T02:28:22;7.47;;;2.90;;
10201;SDS011;5143;42.584;23.164;2023-04-29T02:30:49;4.47;;;2.60;;
10201;SDS011;5143;42.584;23.164;2023-04-29T02:33:16;6.97;;;3.33;;
10201;SDS011;5143;42.584;23.164;2023-04-29T02:35:43;7.70;;;3.00;;
10201;SDS011;5143;42.584;23.164;2023-04-29T02:38:10;5.37;;;3.20;;
10201;SDS011;5143;42.584;23.164;2023-04-29T02:40:39;5.10;;;3.27;;
10201;SDS011;5143;42.584;23.164;2023-04-29T02:43:06;6.30;;;3.53;;
10201;SDS011;5143;42.584;23.164;2023-04-29T02:45:35;8.67;;;3.53;;
10201;SDS011;5143;42.584;23.164;2023-04-29T02:48:01;4.90;;;3.47;;
10201;SDS011;5143;42.584;23.164;2023-04-29T02:50:28;10.33;;;3.70;;
10201;SDS011;5143;42.584;23.164;2023-04-29T02:52:55;5.30;;;3.03;;
10201;SDS011;5143;42.584;23.164;2023-04-29T02:55:22;7.13;;;3.17;;
10201;SDS011;5143;42.584;23.164;2023-04-29T02:57:49;13.17;;;3.40;;
10201;SDS011;5143;42.584;23.164;2023-04-29T03:00:15;6.23;;;2.93;;
10201;SDS011;5143;42.584;23.164;2023-04-29T03:02:44;8.20;;;3.50;;
10201;SDS011;5143;42.584;23.164;2023-04-29T03:05:10;7.13;;;3.30;;
10201;SDS011;5143;42.584;23.164;2023-04-29T03:07:37;5.30;;;3.30;;
10201;SDS011;5143;42.584;23.164;2023-04-29T03:10:04;5.07;;;3.20;;
10201;SDS011;5143;42.584;23.164;2023-04-29T03:12:32;5.50;;;3.63;;
10201;SDS011;5143;42.584;23.164;2023-04-29T03:14:59;4.80;;;3.33;;
10201;SDS011;5143;42.584;23.164;2023-04-29T03:17:25;9.40;;;3.40;;
10201;SDS011;5143;42.584;23.164;2023-04-29T03:19:53;4.50;;;3.27;;
10201;SDS011;5143;42.584;23.164;2023-04-29T03:22:20;3.63;;;3.07;;
10201;SDS011;5143;42.584;23.164;2023-04-29T03:24:47;4.50;;;3.07;;
10201;SDS011;5143;42.584;23.164;2023-04-29T03:27:13;4.53;;;2.90;;
10201;SDS011;5143;42.584;23.164;2023-04-29T03:29:41;5.40;;;3.07;;
10201;SDS011;5143;42.584;23.164;2023-04-29T03:32:08;5.30;;;2.90;;
10201;SDS011;5143;42.584;23.164;2023-04-29T03:34:35;5.67;;;2.70;;
10201;SDS011;5143;42.584;23.164;2023-04-29T03:37:03;3.63;;;2.73;;
10201;SDS011;5143;42.584;23.164;2023-04-29T03:39:30;3.63;;;2.40;;
10201;SDS011;5143;42.584;23.164;2023-04-29T03:41:57;4.23;;;2.30;;
10201;SDS011;5143;42.584;23.164;2023-04-29T03:44:24;5.63;;;2.40;;
10201;SDS011;5143;42.584;23.164;2023-04-29T03:46:51;3.57;;;2.47;;
10201;SDS011;5143;42.584;23.164;2023-04-29T03:49:18;7.83;;;2.90;;
10201;SDS011;5143;42.584;23.164;2023-04-29T03:51:44;3.53;;;2.50;;
10201;SDS011;5143;42.584;23.164;2023-04-29T03:54:13;5.67;;;2.60;;
10201;SDS011;5143;42.584;23.164;2023-04-29T03:56:39;6.57;;;2.70;;
10201;SDS011;5143;42.584;23.164;2023-04-29T03:59:07;6.10;;;2.67;;
10201;SDS011;5143;42.584;23.164;2023-04-29T04:01:34;3.83;;;2.57;;
10201;SDS011;5143;42.584;23.164;2023-04-29T04:04:00;4.87;;;2.87;;
10201;SDS011;5143;42.584;23.164;2023-04-29T04:06:27;6.50;;;2.80;;
10201;SDS011;5143;42.584;23.164;2023-04-29T04:08:55;6.53;;;2.90;;
10201;SDS011;5143;42.584;23.164;2023-04-29T04:11:23;13.50;;;2.93;;
10201;SDS011;5143;42.584;23.164;2023-04-29T04:13:50;7.60;;;3.43;;
10201;SDS011;5143;42.584;23.164;2023-04-29T04:16:16;7.87;;;3.30;;
10201;SDS011;5143;42.584;23.164;2023-04-29T04:18:43;6.73;;;3.37;;
10201;SDS011;5143;42.584;23.164;2023-04-29T04:21:10;5.40;;;3.40;;
10201;SDS011;5143;42.584;23.164;2023-04-29T04:23:37;5.63;;;3.23;;
10201;SDS011;5143;42.584;23.164;2023-04-29T04:26:05;7.47;;;3.50;;
10201;SDS011;5143;42.584;23.164;2023-04-29T04:28:33;7.33;;;3.23;;
10201;SDS011;5143;42.584;23.164;2023-04-29T04:31:00;7.73;;;3.30;;
10201;SDS011;5143;42.584;23.164;2023-04-29T04:33:27;7.40;;;3.40;;
10201;SDS011;5143;42.584;23.164;2023-04-29T04:35:53;7.47;;;4.03;;
10201;SDS011;5143;42.584;23.164;2023-04-29T04:38:20;6.23;;;3.83;;
10201;SDS011;5143;42.584;23.164;2023-04-29T04:40:49;7.07;;;4.00;;
10201;SDS011;5143;42.584;23.164;2023-04-29T04:43:16;7.77;;;4.27;;
10201;SDS011;5143;42.584;23.164;2023-04-29T04:45:44;7.00;;;4.20;;
10201;SDS011;5143;42.584;23.164;2023-04-29T04:48:11;7.17;;;4.00;;
10201;SDS011;5143;42.584;23.164;2023-04-29T04:50:37;4.77;;;3.20;;
10201;SDS011;5143;42.584;23.164;2023-04-29T04:53:04;5.70;;;3.23;;
10201;SDS011;5143;42.584;23.164;2023-04-29T04:55:31;5.97;;;4.37;;
10201;SDS011;5143;42.584;23.164;2023-04-29T04:57:58;9.70;;;4.07;;
10201;SDS011;5143;42.584;23.164;2023-04-29T05:00:25;11.57;;;4.77;;
10201;SDS011;5143;42.584;23.164;2023-04-29T05:02:53;8.60;;;5.10;;
10201;SDS011;5143;42.584;23.164;2023-04-29T05:05:20;13.03;;;5.47;;
10201;SDS011;5143;42.584;23.164;2023-04-29T05:07:46;9.23;;;4.33;;
10201;SDS011;5143;42.584;23.164;2023-04-29T05:10:13;6.43;;;3.90;;
10201;SDS011;5143;42.584;23.164;2023-04-29T05:12:40;6.43;;;3.83;;
10201;SDS011;5143;42.584;23.164;2023-04-29T05:15:07;7.30;;;4.00;;
10201;SDS011;5143;42.584;23.164;2023-04-29T05:17:34;6.73;;;3.47;;
10201;SDS011;5143;42.584;23.164;2023-04-29T05:20:02;10.93;;;3.60;;
10201;SDS011;5143;42.584;23.164;2023-04-29T05:22:29;6.30;;;3.70;;
10201;SDS011;5143;42.584;23.164;2023-04-29T05:24:56;7.30;;;3.60;;
10201;SDS011;5143;42.584;23.164;2023-04-29T05:27:27;9.33;;;3.70;;
10201;SDS011;5143;42.584;23.164;2023-04-29T05:29:53;11.23;;;3.20;;
10201;SDS011;5143;42.584;23.164;2023-04-29T05:32:21;5.80;;;3.20;;
10201;SDS011;5143;42.584;23.164;2023-04-29T05:34:47;5.70;;;2.73;;
10201;SDS011;5143;42.584;23.164;2023-04-29T05:37:15;12.03;;;3.53;;
10201;SDS011;5143;42.584;23.164;2023-04-29T05:39:42;9.20;;;3.70;;
10201;SDS011;5143;42.584;23.164;2023-04-29T05:42:09;6.50;;;3.30;;
10201;SDS011;5143;42.584;23.164;2023-04-29T05:44:36;4.63;;;2.83;;
10201;SDS011;5143;42.584;23.164;2023-04-29T05:47:03;8.47;;;2.50;;
10201;SDS011;5143;42.584;23.164;2023-04-29T05:49:30;5.60;;;3.33;;
10201;SDS011;5143;42.584;23.164;2023-04-29T05:51:57;5.57;;;2.30;;
10201;SDS011;5143;42.584;23.164;2023-04-29T05:54:29;5.10;;;2.67;;
10201;SDS011;5143;42.584;23.164;2023-04-29T05:56:56;3.43;;;2.53;;
10201;SDS011;5143;42.584;23.164;2023-04-29T05:59:23;3.60;;;2.47;;
10201;SDS011;5143;42.584;23.164;2023-04-29T06:01:50;5.80;;;3.03;;
10201;SDS011;5143;42.584;23.164;2023-04-29T06:04:16;5.67;;;2.80;;
10201;SDS011;5143;42.584;23.164;2023-04-29T06:06:43;3.57;;;2.47;;
10201;SDS011;5143;42.584;23.164;2023-04-29T06:09:10;6.97;;;3.10;;
10201;SDS011;5143;42.584;23.164;2023-04-29T06:11:40;5.53;;;2.40;;
10201;SDS011;5143;42.584;23.164;2023-04-29T06:14:08;5.63;;;2.80;;
10201;SDS011;5143;42.584;23.164;2023-04-29T06:16:35;7.57;;;2.87;;
10201;SDS011;5143;42.584;23.164;2023-04-29T06:19:03;6.30;;;2.80;;
10201;SDS011;5143;42.584;23.164;2023-04-29T06:21:30;3.80;;;2.47;;
10201;SDS011;5143;42.584;23.164;2023-04-29T06:23:57;6.47;;;2.90;;
10201;SDS011;5143;42.584;23.164;2023-04-29T06:26:23;7.97;;;2.97;;
10201;SDS011;5143;42.584;23.164;2023-04-29T06:28:51;4.00;;;2.90;;
10201;SDS011;5143;42.584;23.164;2023-04-29T06:31:19;7.23;;;3.40;;
10201;SDS011;5143;42.584;23.164;2023-04-29T06:33:46;5.03;;;2.53;;
10201;SDS011;5143;42.584;23.164;2023-04-29T06:36:12;7.33;;;2.73;;
10201;SDS011;5143;42.584;23.164;2023-04-29T06:38:39;5.83;;;2.30;;
10201;SDS011;5143;42.584;23.164;2023-04-29T06:41:06;8.50;;;3.00;;
10201;SDS011;5143;42.584;23.164;2023-04-29T06:43:32;8.20;;;2.63;;
10201;SDS011;5143;42.584;23.164;2023-04-29T06:46:00;12.35;;;3.10;;
10201;SDS011;5143;42.584;23.164;2023-04-29T06:48:27;7.27;;;3.97;;
10201;SDS011;5143;42.584;23.164;2023-04-29T06:50:54;9.85;;;5.32;;
10201;SDS011;5143;42.584;23.164;2023-04-29T06:53:22;6.77;;;4.33;;
10201;SDS011;5143;42.584;23.164;2023-04-29T06:55:50;39.23;;;7.47;;
10201;SDS011;5143;42.584;23.164;2023-04-29T06:58:17;9.47;;;4.63;;
10201;SDS011;5143;42.584;23.164;2023-04-29T07:00:44;7.70;;;4.90;;
10201;SDS011;5143;42.584;23.164;2023-04-29T07:03:13;15.33;;;4.50;;
10201;SDS011;5143;42.584;23.164;2023-04-29T07:05:40;8.57;;;4.97;;
10201;SDS011;5143;42.584;23.164;2023-04-29T07:08:10;9.93;;;4.87;;
10201;SDS011;5143;42.584;23.164;2023-04-29T07:10:38;10.68;;;4.32;;
10201;SDS011;5143;42.584;23.164;2023-04-29T07:13:05;18.83;;;5.20;;
10201;SDS011;5143;42.584;23.164;2023-04-29T07:15:32;17.47;;;4.23;;
10201;SDS011;5143;42.584;23.164;2023-04-29T07:18:02;10.27;;;4.30;;
10201;SDS011;5143;42.584;23.164;2023-04-29T07:20:30;8.50;;;4.17;;
10201;SDS011;5143;42.584;23.164;2023-04-29T07:22:57;8.23;;;4.00;;
10201;SDS011;5143;42.584;23.164;2023-04-29T07:25:25;9.33;;;4.20;;
10201;SDS011;5143;42.584;23.164;2023-04-29T07:27:53;11.67;;;3.77;;
10201;SDS011;5143;42.584;23.164;2023-04-29T07:30:20;13.20;;;4.37;;
10201;SDS011;5143;42.584;23.164;2023-04-29T07:32:47;9.57;;;3.90;;
10201;SDS011;5143;42.584;23.164;2023-04-29T07:35:14;14.15;;;4.35;;
10201;SDS011;5143;42.584;23.164;2023-04-29T07:37:42;17.95;;;5.90;;
10201;SDS011;5143;42.584;23.164;2023-04-29T07:40:10;9.05;;;4.35;;
10201;SDS011;5143;42.584;23.164;2023-04-29T07:42:37;11.05;;;4.38;;
10201;SDS011;5143;42.584;23.164;2023-04-29T07:45:04;9.45;;;4.30;;
10201;SDS011;5143;42.584;23.164;2023-04-29T07:47:31;8.70;;;3.53;;
10201;SDS011;5143;42.584;23.164;2023-04-29T07:49:58;8.20;;;3.33;;
10201;SDS011;5143;42.584;23.164;2023-04-29T07:52:25;12.80;;;3.17;;
10201;SDS011;5143;42.584;23.164;2023-04-29T07:54:53;6.33;;;3.20;;
10201;SDS011;5143;42.584;23.164;2023-04-29T07:57:20;9.90;;;3.57;;
10201;SDS011;5143;42.584;23.164;2023-04-29T07:59:49;9.47;;;3.37;;
10201;SDS011;5143;42.584;23.164;2023-04-29T08:02:17;10.90;;;2.67;;
10201;SDS011;5143;42.584;23.164;2023-04-29T08:04:44;11.33;;;3.10;;
10201;SDS011;5143;42.584;23.164;2023-04-29T08:07:11;8.43;;;2.90;;
10201;SDS011;5143;42.584;23.164;2023-04-29T08:09:38;12.47;;;3.27;;
10201;SDS011;5143;42.584;23.164;2023-04-29T08:12:06;18.63;;;3.93;;
10201;SDS011;5143;42.584;23.164;2023-04-29T08:14:33;6.67;;;3.03;;
10201;SDS011;5143;42.584;23.164;2023-04-29T08:17:00;6.67;;;2.83;;
10201;SDS011;5143;42.584;23.164;2023-04-29T08:19:27;6.70;;;3.27;;
10201;SDS011;5143;42.584;23.164;2023-04-29T08:21:53;7.77;;;2.93;;
10201;SDS011;5143;42.584;23.164;2023-04-29T08:24:20;14.13;;;3.30;;
10201;SDS011;5143;42.584;23.164;2023-04-29T08:26:47;7.63;;;2.70;;
10201;SDS011;5143;42.584;23.164;2023-04-29T08:29:15;6.70;;;2.37;;
10201;SDS011;5143;42.584;23.164;2023-04-29T08:31:42;6.97;;;2.60;;
10201;SDS011;5143;42.584;23.164;2023-04-29T08:34:09;4.50;;;2.17;;
10201;SDS011;5143;42.584;23.164;2023-04-29T08:36:36;8.23;;;2.83;;
10201;SDS011;5143;42.584;23.164;2023-04-29T08:39:02;4.03;;;2.13;;
10201;SDS011;5143;42.584;23.164;2023-04-29T08:41:30;8.27;;;2.70;;
10201;SDS011;5143;42.584;23.164;2023-04-29T08:43:58;6.50;;;2.20;;
10201;SDS011;5143;42.584;23.164;2023-04-29T08:46:26;5.43;;;2.63;;
10201;SDS011;5143;42.584;23.164;2023-04-29T08:48:53;5.67;;;2.23;;
10201;SDS011;5143;42.584;23.164;2023-04-29T08:51:22;3.90;;;2.20;;
10201;SDS011;5143;42.584;23.164;2023-04-29T08:53:48;5.87;;;2.70;;
10201;SDS011;5143;42.584;23.164;2023-04-29T08:56:16;12.73;;;2.90;;
10201;SDS011;5143;42.584;23.164;2023-04-29T08:58:44;9.00;;;2.83;;
10201;SDS011;5143;42.584;23.164;2023-04-29T09:01:11;9.60;;;2.97;;
10201;SDS011;5143;42.584;23.164;2023-04-29T09:03:42;9.77;;;3.40;;
10201;SDS011;5143;42.584;23.164;2023-04-29T09:06:12;19.10;;;3.77;;
10201;SDS011;5143;42.584;23.164;2023-04-29T09:08:39;13.07;;;3.10;;
10201;SDS011;5143;42.584;23.164;2023-04-29T09:11:07;19.57;;;4.30;;
10201;SDS011;5143;42.584;23.164;2023-04-29T09:13:35;13.33;;;3.57;;
10201;SDS011;5143;42.584;23.164;2023-04-29T09:16:02;12.93;;;3.53;;
10201;SDS011;5143;42.584;23.164;2023-04-29T09:18:44;9.57;;;3.47;;
10201;SDS011;5143;42.584;23.164;2023-04-29T09:21:12;8.77;;;3.53;;
10201;SDS011;5143;42.584;23.164;2023-04-29T09:23:40;13.50;;;3.47;;
10201;SDS011;5143;42.584;23.164;2023-04-29T09:26:07;15.50;;;3.77;;
10201;SDS011;5143;42.584;23.164;2023-04-29T09:28:33;16.53;;;2.97;;
10201;SDS011;5143;42.584;23.164;2023-04-29T09:31:00;13.23;;;3.30;;
10201;SDS011;5143;42.584;23.164;2023-04-29T09:33:30;20.80;;;3.93;;
10201;SDS011;5143;42.584;23.164;2023-04-29T09:35:58;18.83;;;4.67;;
10201;SDS011;5143;42.584;23.164;2023-04-29T09:38:25;20.10;;;3.40;;
10201;SDS011;5143;42.584;23.164;2023-04-29T09:40:52;13.17;;;3.40;;
10201;SDS011;5143;42.584;23.164;2023-04-29T09:43:20;13.40;;;3.40;;
10201;SDS011;5143;42.584;23.164;2023-04-29T09:45:47;17.63;;;2.83;;
10201;SDS011;5143;42.584;23.164;2023-04-29T09:48:15;13.90;;;3.07;;
10201;SDS011;5143;42.584;23.164;2023-04-29T09:50:42;12.60;;;2.80;;
10201;SDS011;5143;42.584;23.164;2023-04-29T09:53:12;12.60;;;2.90;;
10201;SDS011;5143;42.584;23.164;2023-04-29T09:55:57;12.93;;;3.20;;
10201;SDS011;5143;42.584;23.164;2023-04-29T09:58:29;6.57;;;2.30;;
10201;SDS011;5143;42.584;23.164;2023-04-29T10:01:01;11.20;;;2.60;;
10201;SDS011;5143;42.584;23.164;2023-04-29T10:03:30;10.13;;;2.60;;
10201;SDS011;5143;42.584;23.164;2023-04-29T10:05:58;4.77;;;2.10;;
10201;SDS011;5143;42.584;23.164;2023-04-29T10:08:28;4.57;;;1.93;;
10201;SDS011;5143;42.584;23.164;2023-04-29T10:10:57;8.70;;;2.57;;
10201;SDS011;5143;42.584;23.164;2023-04-29T10:13:25;4.87;;;2.20;;
10201;SDS011;5143;42.584;23.164;2023-04-29T10:15:56;10.90;;;2.33;;
10201;SDS011;5143;42.584;23.164;2023-04-29T10:18:29;8.40;;;2.07;;
10201;SDS011;5143;42.584;23.164;2023-04-29T10:21:01;13.03;;;3.13;;
10201;SDS011;5143;42.584;23.164;2023-04-29T10:23:30;20.13;;;2.80;;
10201;SDS011;5143;42.584;23.164;2023-04-29T10:25:58;7.10;;;2.30;;
10201;SDS011;5143;42.584;23.164;2023-04-29T10:28:28;5.50;;;2.33;;
10201;SDS011;5143;42.584;23.164;2023-04-29T10:30:57;8.40;;;2.23;;
10201;SDS011;5143;42.584;23.164;2023-04-29T10:33:25;6.40;;;2.50;;
10201;SDS011;5143;42.584;23.164;2023-04-29T10:35:55;6.90;;;2.30;;
10201;SDS011;5143;42.584;23.164;2023-04-29T10:38:23;7.60;;;2.67;;
10201;SDS011;5143;42.584;23.164;2023-04-29T10:40:56;13.53;;;2.97;;
10201;SDS011;5143;42.584;23.164;2023-04-29T10:43:25;6.10;;;2.27;;
10201;SDS011;5143;42.584;23.164;2023-04-29T10:46:06;6.90;;;2.43;;
10201;SDS011;5143;42.584;23.164;2023-04-29T10:48:43;11.00;;;2.27;;
10201;SDS011;5143;42.584;23.164;2023-04-29T10:51:09;26.13;;;4.07;;
10201;SDS011;5143;42.584;23.164;2023-04-29T10:53:46;6.43;;;2.07;;
10201;SDS011;5143;42.584;23.164;2023-04-29T10:56:29;7.73;;;2.13;;
10201;SDS011;5143;42.584;23.164;2023-04-29T10:59:02;6.30;;;2.37;;
10201;SDS011;5143;42.584;23.164;2023-04-29T11:01:39;8.13;;;2.00;;
10201;SDS011;5143;42.584;23.164;2023-04-29T11:04:07;7.33;;;2.60;;
10201;SDS011;5143;42.584;23.164;2023-04-29T11:06:39;4.87;;;2.23;;
10201;SDS011;5143;42.584;23.164;2023-04-29T11:09:08;6.37;;;2.10;;
10201;SDS011;5143;42.584;23.164;2023-04-29T11:14:29;4.30;;;1.70;;
10201;SDS011;5143;42.584;23.164;2023-04-29T11:17:02;14.40;;;2.60;;
10201;SDS011;5143;42.584;23.164;2023-04-29T11:19:30;7.00;;;2.00;;
10201;SDS011;5143;42.584;23.164;2023-04-29T11:22:11;9.73;;;2.47;;
10201;SDS011;5143;42.584;23.164;2023-04-29T11:25:00;14.63;;;3.40;;
10201;SDS011;5143;42.584;23.164;2023-04-29T11:27:30;4.73;;;2.23;;
10201;SDS011;5143;42.584;23.164;2023-04-29T11:29:58;12.17;;;3.33;;
10201;SDS011;5143;42.584;23.164;2023-04-29T11:32:27;11.87;;;2.53;;
10201;SDS011;5143;42.584;23.164;2023-04-29T11:35:05;5.77;;;1.97;;
10201;SDS011;5143;42.584;23.164;2023-04-29T11:37:32;6.30;;;2.13;;
10201;SDS011;5143;42.584;23.164;2023-04-29T11:40:00;7.90;;;3.10;;
10201;SDS011;5143;42.584;23.164;2023-04-29T11:42:27;5.50;;;2.30;;
10201;SDS011;5143;42.584;23.164;2023-04-29T11:44:56;4.17;;;1.87;;
10201;SDS011;5143;42.584;23.164;2023-04-29T11:47:27;9.17;;;2.40;;
10201;SDS011;5143;42.584;23.164;2023-04-29T11:50:00;9.77;;;2.53;;
10201;SDS011;5143;42.584;23.164;2023-04-29T11:52:28;5.53;;;2.00;;
10201;SDS011;5143;42.584;23.164;2023-04-29T11:54:56;8.67;;;2.50;;
10201;SDS011;5143;42.584;23.164;2023-04-29T11:57:23;6.57;;;1.87;;
10201;SDS011;5143;42.584;23.164;2023-04-29T11:59:50;4.83;;;2.10;;
10201;SDS011;5143;42.584;23.164;2023-04-29T12:02:21;5.20;;;2.43;;
10201;SDS011;5143;42.584;23.164;2023-04-29T12:04:48;5.80;;;2.10;;
10201;SDS011;5143;42.584;23.164;2023-04-29T12:07:15;7.37;;;2.33;;
10201;SDS011;5143;42.584;23.164;2023-04-29T12:09:42;7.77;;;2.63;;
10201;SDS011;5143;42.584;23.164;2023-04-29T12:12:09;6.17;;;2.50;;
10201;SDS011;5143;42.584;23.164;2023-04-29T12:14:36;6.10;;;2.60;;
10201;SDS011;5143;42.584;23.164;2023-04-29T12:17:04;11.03;;;3.30;;
10201;SDS011;5143;42.584;23.164;2023-04-29T12:19:32;6.50;;;2.70;;
10201;SDS011;5143;42.584;23.164;2023-04-29T12:22:01;11.10;;;3.27;;
10201;SDS011;5143;42.584;23.164;2023-04-29T12:24:31;7.87;;;2.40;;
10201;SDS011;5143;42.584;23.164;2023-04-29T12:27:00;3.73;;;1.97;;
10201;SDS011;5143;42.584;23.164;2023-04-29T12:29:27;3.63;;;2.17;;
10201;SDS011;5143;42.584;23.164;2023-04-29T12:31:54;3.47;;;1.77;;
10201;SDS011;5143;42.584;23.164;2023-04-29T12:34:23;3.63;;;1.80;;
10201;SDS011;5143;42.584;23.164;2023-04-29T12:36:53;4.80;;;1.80;;
10201;SDS011;5143;42.584;23.164;2023-04-29T12:39:20;5.83;;;1.70;;
10201;SDS011;5143;42.584;23.164;2023-04-29T12:41:47;20.20;;;2.70;;
10201;SDS011;5143;42.584;23.164;2023-04-29T12:44:14;6.53;;;2.60;;
10201;SDS011;5143;42.584;23.164;2023-04-29T12:46:41;6.80;;;2.00;;
10201;SDS011;5143;42.584;23.164;2023-04-29T12:49:07;7.20;;;2.23;;
10201;SDS011;5143;42.584;23.164;2023-04-29T12:51:34;8.40;;;2.73;;
10201;SDS011;5143;42.584;23.164;2023-04-29T12:54:03;7.93;;;2.20;;
10201;SDS011;5143;42.584;23.164;2023-04-29T12:56:31;8.80;;;2.17;;
10201;SDS011;5143;42.584;23.164;2023-04-29T12:59:03;11.73;;;2.50;;
10201;SDS011;5143;42.584;23.164;2023-04-29T13:01:31;30.77;;;5.07;;
10201;SDS011;5143;42.584;23.164;2023-04-29T13:03:57;12.73;;;2.40;;
10201;SDS011;5143;42.584;23.164;2023-04-29T13:06:24;5.23;;;2.00;;
10201;SDS011;5143;42.584;23.164;2023-04-29T13:08:51;6.10;;;2.20;;
10201;SDS011;5143;42.584;23.164;2023-04-29T13:11:20;7.60;;;2.80;;
10201;SDS011;5143;42.584;23.164;2023-04-29T13:13:46;4.43;;;2.20;;
10201;SDS011;5143;42.584;23.164;2023-04-29T13:16:13;7.07;;;2.50;;
10201;SDS011;5143;42.584;23.164;2023-04-29T13:18:40;6.53;;;2.73;;
10201;SDS011;5143;42.584;23.164;2023-04-29T13:21:07;7.30;;;2.50;;
10201;SDS011;5143;42.584;23.164;2023-04-29T13:23:33;12.07;;;2.47;;
10201;SDS011;5143;42.584;23.164;2023-04-29T13:26:00;10.77;;;2.63;;
10201;SDS011;5143;42.584;23.164;2023-04-29T13:28:28;5.83;;;2.50;;
10201;SDS011;5143;42.584;23.164;2023-04-29T13:30:55;19.60;;;3.23;;
10201;SDS011;5143;42.584;23.164;2023-04-29T13:33:22;8.00;;;2.33;;
10201;SDS011;5143;42.584;23.164;2023-04-29T13:35:49;7.83;;;2.27;;
10201;SDS011;5143;42.584;23.164;2023-04-29T13:38:16;10.13;;;2.77;;
10201;SDS011;5143;42.584;23.164;2023-04-29T13:40:42;8.63;;;2.30;;
10201;SDS011;5143;42.584;23.164;2023-04-29T13:43:10;5.13;;;2.30;;
10201;SDS011;5143;42.584;23.164;2023-04-29T13:45:38;7.40;;;3.43;;
10201;SDS011;5143;42.584;23.164;2023-04-29T13:48:04;5.10;;;2.80;;
10201;SDS011;5143;42.584;23.164;2023-04-29T13:50:32;7.00;;;2.40;;
10201;SDS011;5143;42.584;23.164;2023-04-29T13:52:59;7.63;;;2.47;;
10201;SDS011;5143;42.584;23.164;2023-04-29T13:55:25;5.93;;;2.10;;
10201;SDS011;5143;42.584;23.164;2023-04-29T13:57:52;16.17;;;2.60;;
10201;SDS011;5143;42.584;23.164;2023-04-29T14:00:19;3.80;;;2.27;;
10201;SDS011;5143;42.584;23.164;2023-04-29T14:02:47;5.47;;;2.00;;
10201;SDS011;5143;42.584;23.164;2023-04-29T14:05:14;10.73;;;2.30;;
10201;SDS011;5143;42.584;23.164;2023-04-29T14:07:41;8.43;;;2.43;;
10201;SDS011;5143;42.584;23.164;2023-04-29T14:10:08;8.90;;;2.40;;
10201;SDS011;5143;42.584;23.164;2023-04-29T14:12:35;9.30;;;2.70;;
10201;SDS011;5143;42.584;23.164;2023-04-29T14:15:02;6.77;;;2.53;;
10201;SDS011;5143;42.584;23.164;2023-04-29T14:17:29;6.27;;;2.47;;
10201;SDS011;5143;42.584;23.164;2023-04-29T14:19:57;5.10;;;2.70;;
10201;SDS011;5143;42.584;23.164;2023-04-29T14:22:24;7.60;;;2.60;;
10201;SDS011;5143;42.584;23.164;2023-04-29T14:24:51;10.37;;;3.53;;
10201;SDS011;5143;42.584;23.164;2023-04-29T14:27:18;7.10;;;2.23;;
10201;SDS011;5143;42.584;23.164;2023-04-29T14:29:46;7.47;;;2.30;;
10201;SDS011;5143;42.584;23.164;2023-04-29T14:32:13;4.53;;;2.20;;
10201;SDS011;5143;42.584;23.164;2023-04-29T14:34:39;11.03;;;3.47;;
10201;SDS011;5143;42.584;23.164;2023-04-29T14:37:08;7.60;;;2.03;;
10201;SDS011;5143;42.584;23.164;2023-04-29T14:39:34;7.87;;;2.73;;
10201;SDS011;5143;42.584;23.164;2023-04-29T14:42:01;5.07;;;2.43;;
10201;SDS011;5143;42.584;23.164;2023-04-29T14:44:28;3.97;;;1.83;;
10201;SDS011;5143;42.584;23.164;2023-04-29T14:46:55;7.63;;;2.30;;
10201;SDS011;5143;42.584;23.164;2023-04-29T14:49:22;7.13;;;2.60;;
10201;SDS011;5143;42.584;23.164;2023-04-29T14:51:49;7.20;;;2.77;;
10201;SDS011;5143;42.584;23.164;2023-04-29T14:54:17;11.70;;;3.00;;